sensor_id;sensor_type;location;lat;lon;timestamp;pressure;altitude;pressure_sealevel;temperature;humidity
49311;BME280;35177;45.900;5.946;2024-01-06T03:07:23;96589.69;;;4.64;nan
49311;BME280;35177;45.900;5.946;2024-01-06T03:14:39;96604.25;;;4.54;nan
49311;BME280;35177;45.900;5.946;2024-01-06T03:26:47;96604.09;;;4.57;nan
49311;BME280;35177;45.900;5.946;2024-01-06T03:36:28;96605.88;;;4.57;nan
49311;BME280;35177;45.900;5.946;2024-01-06T03:38:53;96604.84;;;4.59;nan
49311;BME280;35177;45.900;5.946;2024-01-06T03:41:19;96606.34;;;4.63;nan
49311;BME280;35177;45.900;5.946;2024-01-06T03:43:44;96603.44;;;4.68;nan
49311;BME280;35177;45.900;5.946;2024-01-06T03:46:10;96601.78;;;4.67;nan
49311;BME280;35177;45.900;5.946;2024-01-06T03:48:35;96598.09;;;4.69;nan
49311;BME280;35177;45.900;5.946;2024-01-06T03:51:02;96600.56;;;4.72;nan
49311;BME280;35177;45.900;5.946;2024-01-06T03:53:27;96604.88;;;4.73;nan
49311;BME280;35177;45.900;5.946;2024-01-06T03:55:52;96604.88;;;4.73;nan
49311;BME280;35177;45.900;5.946;2024-01-06T03:58:18;96604.94;;;4.72;nan
49311;BME280;35177;45.900;5.946;2024-01-06T04:00:43;96599.63;;;4.73;nan
49311;BME280;35177;45.900;5.946;2024-01-06T04:03:09;96606.75;;;4.71;nan
49311;BME280;35177;45.900;5.946;2024-01-06T04:05:34;96611.03;;;4.72;nan
49311;BME280;35177;45.900;5.946;2024-01-06T04:07:59;96604.59;;;4.78;nan
49311;BME280;35177;45.900;5.946;2024-01-06T04:10:25;96610.31;;;4.84;nan
49311;BME280;35177;45.900;5.946;2024-01-06T04:12:50;96610.31;;;4.84;nan
49311;BME280;35177;45.900;5.946;2024-01-06T04:15:15;96615.13;;;4.92;nan
49311;BME280;35177;45.900;5.946;2024-01-06T04:17:41;96610.44;;;4.97;nan
49311;BME280;35177;45.900;5.946;2024-01-06T04:20:07;96615.59;;;4.99;nan
49311;BME280;35177;45.900;5.946;2024-01-06T04:22:33;96620.09;;;4.97;nan
49311;BME280;35177;45.900;5.946;2024-01-06T04:24:58;96624.38;;;4.98;nan
49311;BME280;35177;45.900;5.946;2024-01-06T04:27:24;96604.72;;;4.90;nan
49311;BME280;35177;45.900;5.946;2024-01-06T04:29:49;96613.31;;;4.92;nan
49311;BME280;35177;45.900;5.946;2024-01-06T04:32:18;96613.16;;;4.96;nan
49311;BME280;35177;45.900;5.946;2024-01-06T04:34:44;96621.00;;;4.96;nan
49311;BME280;35177;45.900;5.946;2024-01-06T04:37:09;96621.97;;;4.95;nan
49311;BME280;35177;45.900;5.946;2024-01-06T04:39:34;96629.91;;;4.93;nan
49311;BME280;35177;45.900;5.946;2024-01-06T04:42:00;96624.66;;;4.93;nan
49311;BME280;35177;45.900;5.946;2024-01-06T04:44:25;96621.97;;;4.95;nan
49311;BME280;35177;45.900;5.946;2024-01-06T04:46:51;96621.28;;;4.91;nan
49311;BME280;35177;45.900;5.946;2024-01-06T04:49:16;96626.63;;;4.89;nan
49311;BME280;35177;45.900;5.946;2024-01-06T04:51:41;96627.22;;;4.95;nan
49311;BME280;35177;45.900;5.946;2024-01-06T04:54:07;96622.03;;;4.93;nan
49311;BME280;35177;45.900;5.946;2024-01-06T04:56:32;96617.53;;;4.95;nan
49311;BME280;35177;45.900;5.946;2024-01-06T04:58:57;96629.03;;;4.92;nan
49311;BME280;35177;45.900;5.946;2024-01-06T05:01:23;96621.13;;;4.94;nan
49311;BME280;35177;45.900;5.946;2024-01-06T05:03:49;96617.75;;;4.92;nan
49311;BME280;35177;45.900;5.946;2024-01-06T05:06:14;96622.50;;;4.85;nan
49311;BME280;35177;45.900;5.946;2024-01-06T05:08:40;96612.84;;;4.86;nan
49311;BME280;35177;45.900;5.946;2024-01-06T05:11:10;96611.34;;;4.82;nan
49311;BME280;35177;45.900;5.946;2024-01-06T05:13:36;96620.34;;;4.78;nan
49311;BME280;35177;45.900;5.946;2024-01-06T05:16:02;96619.59;;;4.76;nan
49311;BME280;35177;45.900;5.946;2024-01-06T05:18:27;96619.47;;;4.77;nan
49311;BME280;35177;45.900;5.946;2024-01-06T05:20:53;96623.44;;;4.84;nan
49311;BME280;35177;45.900;5.946;2024-01-06T05:23:19;96622.75;;;4.81;nan
49311;BME280;35177;45.900;5.946;2024-01-06T05:25:45;96624.44;;;4.82;nan
49311;BME280;35177;45.900;5.946;2024-01-06T05:28:10;96633.34;;;4.79;nan
49311;BME280;35177;45.900;5.946;2024-01-06T05:30:35;96635.84;;;4.81;nan
49311;BME280;35177;45.900;5.946;2024-01-06T05:33:01;96643.66;;;4.82;nan
49311;BME280;35177;45.900;5.946;2024-01-06T05:35:27;96643.72;;;4.81;nan
49311;BME280;35177;45.900;5.946;2024-01-06T05:37:52;96643.72;;;4.81;nan
49311;BME280;35177;45.900;5.946;2024-01-06T05:40:17;96643.91;;;4.78;nan
49311;BME280;35177;45.900;5.946;2024-01-06T05:42:43;96642.47;;;4.72;nan
49311;BME280;35177;45.900;5.946;2024-01-06T05:45:11;96648.56;;;4.73;nan
49311;BME280;35177;45.900;5.946;2024-01-06T05:47:40;96649.16;;;4.78;nan
49311;BME280;35177;45.900;5.946;2024-01-06T05:50:06;96652.13;;;4.72;nan
49311;BME280;35177;45.900;5.946;2024-01-06T05:52:32;96649.75;;;4.67;nan
49311;BME280;35177;45.900;5.946;2024-01-06T05:54:58;96652.47;;;4.66;nan
49311;BME280;35177;45.900;5.946;2024-01-06T05:57:23;96646.41;;;4.65;nan
49311;BME280;35177;45.900;5.946;2024-01-06T05:59:49;96642.84;;;4.66;nan
49311;BME280;35177;45.900;5.946;2024-01-06T06:02:14;96646.22;;;4.68;nan
49311;BME280;35177;45.900;5.946;2024-01-06T06:04:39;96646.56;;;4.62;nan
49311;BME280;35177;45.900;5.946;2024-01-06T06:07:05;96651.72;;;4.64;nan
49311;BME280;35177;45.900;5.946;2024-01-06T06:09:30;96654.69;;;4.58;nan
49311;BME280;35177;45.900;5.946;2024-01-06T06:11:56;96649.06;;;4.50;nan
49311;BME280;35177;45.900;5.946;2024-01-06T06:14:21;96659.47;;;4.36;nan
49311;BME280;35177;45.900;5.946;2024-01-06T06:16:47;96651.34;;;4.40;nan
49311;BME280;35177;45.900;5.946;2024-01-06T06:19:13;96652.78;;;4.46;nan
49311;BME280;35177;45.900;5.946;2024-01-06T06:21:38;96664.78;;;4.50;nan
49311;BME280;35177;45.900;5.946;2024-01-06T06:24:04;96661.31;;;4.49;nan
49311;BME280;35177;45.900;5.946;2024-01-06T06:26:29;96666.44;;;4.51;nan
49311;BME280;35177;45.900;5.946;2024-01-06T06:28:55;96666.91;;;4.43;nan
49311;BME280;35177;45.900;5.946;2024-01-06T06:31:20;96668.78;;;4.41;nan
49311;BME280;35177;45.900;5.946;2024-01-06T06:33:46;96667.06;;;4.40;nan
49311;BME280;35177;45.900;5.946;2024-01-06T06:36:11;96665.38;;;4.39;nan
49311;BME280;35177;45.900;5.946;2024-01-06T06:38:37;96675.63;;;4.44;nan
49311;BME280;35177;45.900;5.946;2024-01-06T06:41:02;96680.00;;;4.43;nan
49311;BME280;35177;45.900;5.946;2024-01-06T06:43:28;96681.09;;;4.39;nan
49311;BME280;35177;45.900;5.946;2024-01-06T06:45:53;96690.63;;;4.40;nan
49311;BME280;35177;45.900;5.946;2024-01-06T06:48:20;96693.09;;;4.43;nan
49311;BME280;35177;45.900;5.946;2024-01-06T06:50:46;96705.75;;;4.35;nan
49311;BME280;35177;45.900;5.946;2024-01-06T06:53:11;96706.72;;;4.34;nan
49311;BME280;35177;45.900;5.946;2024-01-06T06:55:38;96711.69;;;4.39;nan
49311;BME280;35177;45.900;5.946;2024-01-06T06:58:04;96703.09;;;4.37;nan
49311;BME280;35177;45.900;5.946;2024-01-06T07:00:30;96701.28;;;4.37;nan
49311;BME280;35177;45.900;5.946;2024-01-06T07:02:55;96701.78;;;4.28;nan
49311;BME280;35177;45.900;5.946;2024-01-06T07:05:21;96698.84;;;4.34;nan
49311;BME280;35177;45.900;5.946;2024-01-06T07:07:46;96699.09;;;4.30;nan
49311;BME280;35177;45.900;5.946;2024-01-06T07:10:12;96697.16;;;4.33;nan
49311;BME280;35177;45.900;5.946;2024-01-06T07:12:38;96697.16;;;4.33;nan
49311;BME280;35177;45.900;5.946;2024-01-06T07:15:04;96699.00;;;4.31;nan
49311;BME280;35177;45.900;5.946;2024-01-06T07:17:29;96703.25;;;4.34;nan
49311;BME280;35177;45.900;5.946;2024-01-06T07:19:55;96705.59;;;4.38;nan
49311;BME280;35177;45.900;5.946;2024-01-06T07:22:21;96709.13;;;4.37;nan
49311;BME280;35177;45.900;5.946;2024-01-06T07:24:46;96704.75;;;4.38;nan
49311;BME280;35177;45.900;5.946;2024-01-06T07:27:12;96711.75;;;4.37;nan
49311;BME280;35177;45.900;5.946;2024-01-06T07:29:37;96719.59;;;4.37;nan
49311;BME280;35177;45.900;5.946;2024-01-06T07:32:04;96721.41;;;4.37;nan
49311;BME280;35177;45.900;5.946;2024-01-06T07:34:31;96729.19;;;4.38;nan
49311;BME280;35177;45.900;5.946;2024-01-06T07:36:56;96727.75;;;4.48;nan
49311;BME280;35177;45.900;5.946;2024-01-06T07:39:22;96729.41;;;4.49;nan
49311;BME280;35177;45.900;5.946;2024-01-06T07:41:49;96737.38;;;4.48;nan
49311;BME280;35177;45.900;5.946;2024-01-06T07:44:15;96731.28;;;4.47;nan
49311;BME280;35177;45.900;5.946;2024-01-06T07:46:41;96743.72;;;4.44;nan
49311;BME280;35177;45.900;5.946;2024-01-06T07:49:07;96748.00;;;4.45;nan
49311;BME280;35177;45.900;5.946;2024-01-06T07:51:32;96745.47;;;4.43;nan
49311;BME280;35177;45.900;5.946;2024-01-06T07:54:00;96742.66;;;4.46;nan
49311;BME280;35177;45.900;5.946;2024-01-06T07:56:26;96750.06;;;4.55;nan
49311;BME280;35177;45.900;5.946;2024-01-06T07:58:51;96741.25;;;4.56;nan
49311;BME280;35177;45.900;5.946;2024-01-06T08:01:18;96747.84;;;4.48;nan
49311;BME280;35177;45.900;5.946;2024-01-06T08:03:43;96751.72;;;4.41;nan
49311;BME280;35177;45.900;5.946;2024-01-06T08:06:09;96743.38;;;4.50;nan
49311;BME280;35177;45.900;5.946;2024-01-06T08:08:35;96754.75;;;4.49;nan
49311;BME280;35177;45.900;5.946;2024-01-06T08:11:00;96747.75;;;4.49;nan
49311;BME280;35177;45.900;5.946;2024-01-06T08:13:26;96748.84;;;4.45;nan
49311;BME280;35177;45.900;5.946;2024-01-06T08:15:51;96749.97;;;4.41;nan
49311;BME280;35177;45.900;5.946;2024-01-06T08:18:17;96753.59;;;4.39;nan
49311;BME280;35177;45.900;5.946;2024-01-06T08:20:43;96753.66;;;4.37;nan
49311;BME280;35177;45.900;5.946;2024-01-06T08:23:08;96751.72;;;4.41;nan
49311;BME280;35177;45.900;5.946;2024-01-06T08:25:34;96754.09;;;4.45;nan
49311;BME280;35177;45.900;5.946;2024-01-06T08:27:59;96753.00;;;4.49;nan
49311;BME280;35177;45.900;5.946;2024-01-06T08:30:25;96749.19;;;4.55;nan
49311;BME280;35177;45.900;5.946;2024-01-06T08:32:51;96751.38;;;4.62;nan
49311;BME280;35177;45.900;5.946;2024-01-06T08:35:17;96754.78;;;4.64;nan
49311;BME280;35177;45.900;5.946;2024-01-06T08:37:42;96751.78;;;4.70;nan
49311;BME280;35177;45.900;5.946;2024-01-06T08:40:09;96752.72;;;4.69;nan
49311;BME280;35177;45.900;5.946;2024-01-06T08:42:35;96747.16;;;4.75;nan
49311;BME280;35177;45.900;5.946;2024-01-06T08:45:00;96754.16;;;4.75;nan
49311;BME280;35177;45.900;5.946;2024-01-06T08:47:25;96758.28;;;4.79;nan
49311;BME280;35177;45.900;5.946;2024-01-06T08:49:51;96756.41;;;4.81;nan
49311;BME280;35177;45.900;5.946;2024-01-06T08:52:16;96762.19;;;4.87;nan
49311;BME280;35177;45.900;5.946;2024-01-06T08:54:42;96757.69;;;4.89;nan
49311;BME280;35177;45.900;5.946;2024-01-06T08:57:07;96768.66;;;4.96;nan
49311;BME280;35177;45.900;5.946;2024-01-06T08:59:33;96776.16;;;5.02;nan
49311;BME280;35177;45.900;5.946;2024-01-06T09:01:58;96776.16;;;5.02;nan
49311;BME280;35177;45.900;5.946;2024-01-06T09:04:24;96777.59;;;5.08;nan
49311;BME280;35177;45.900;5.946;2024-01-06T09:06:49;96784.63;;;5.07;nan
49311;BME280;35177;45.900;5.946;2024-01-06T09:09:16;96788.75;;;5.11;nan
49311;BME280;35177;45.900;5.946;2024-01-06T09:11:41;96786.97;;;5.12;nan
49311;BME280;35177;45.900;5.946;2024-01-06T09:14:09;96787.28;;;5.21;nan
49311;BME280;35177;45.900;5.946;2024-01-06T09:16:35;96789.81;;;5.23;nan
49311;BME280;35177;45.900;5.946;2024-01-06T09:19:02;96792.38;;;5.24;nan
49311;BME280;35177;45.900;5.946;2024-01-06T09:21:27;96792.84;;;5.31;nan
49311;BME280;35177;45.900;5.946;2024-01-06T09:23:53;96791.00;;;5.33;nan
49311;BME280;35177;45.900;5.946;2024-01-06T09:26:19;96791.47;;;5.39;nan
49311;BME280;35177;45.900;5.946;2024-01-06T09:28:44;96786.91;;;5.43;nan
49311;BME280;35177;45.900;5.946;2024-01-06T09:31:10;96796.84;;;5.52;nan
49311;BME280;35177;45.900;5.946;2024-01-06T09:33:35;96794.97;;;5.54;nan
49311;BME280;35177;45.900;5.946;2024-01-06T09:36:01;96790.75;;;5.51;nan
49311;BME280;35177;45.900;5.946;2024-01-06T09:38:27;96810.91;;;5.51;nan
49311;BME280;35177;45.900;5.946;2024-01-06T09:40:53;96801.72;;;5.58;nan
49311;BME280;35177;45.900;5.946;2024-01-06T09:43:19;96805.31;;;5.57;nan
49311;BME280;35177;45.900;5.946;2024-01-06T09:45:49;96812.97;;;5.60;nan
49311;BME280;35177;45.900;5.946;2024-01-06T09:48:19;96816.19;;;5.65;nan
49311;BME280;35177;45.900;5.946;2024-01-06T09:50:46;96810.19;;;5.63;nan
49311;BME280;35177;45.900;5.946;2024-01-06T09:53:12;96815.59;;;5.60;nan
49311;BME280;35177;45.900;5.946;2024-01-06T09:55:38;96824.06;;;5.65;nan
49311;BME280;35177;45.900;5.946;2024-01-06T09:58:04;96822.75;;;5.72;nan
49311;BME280;35177;45.900;5.946;2024-01-06T10:00:31;96822.41;;;5.78;nan
49311;BME280;35177;45.900;5.946;2024-01-06T10:02:57;96819.44;;;5.84;nan
49311;BME280;35177;45.900;5.946;2024-01-06T10:05:23;96823.78;;;5.85;nan
49311;BME280;35177;45.900;5.946;2024-01-06T10:07:49;96821.38;;;5.81;nan
49311;BME280;35177;45.900;5.946;2024-01-06T10:10:15;96824.53;;;5.87;nan
49311;BME280;35177;45.900;5.946;2024-01-06T10:12:41;96824.53;;;5.87;nan
49311;BME280;35177;45.900;5.946;2024-01-06T10:15:08;96819.63;;;5.95;nan
49311;BME280;35177;45.900;5.946;2024-01-06T10:20:44;96817.47;;;6.02;nan
49311;BME280;35177;45.900;5.946;2024-01-06T10:23:11;96809.44;;;6.19;nan
49311;BME280;35177;45.900;5.946;2024-01-06T10:25:37;96808.13;;;6.40;nan
49311;BME280;35177;45.900;5.946;2024-01-06T10:28:11;96807.34;;;6.52;nan
49311;BME280;35177;45.900;5.946;2024-01-06T10:30:39;96812.63;;;6.38;nan
49311;BME280;35177;45.900;5.946;2024-01-06T10:33:13;96812.25;;;6.30;nan
49311;BME280;35177;45.900;5.946;2024-01-06T10:35:39;96813.09;;;6.30;nan
49311;BME280;35177;45.900;5.946;2024-01-06T10:38:06;96806.78;;;6.61;nan
49311;BME280;35177;45.900;5.946;2024-01-06T10:40:34;96802.06;;;6.80;nan
49311;BME280;35177;45.900;5.946;2024-01-06T10:43:00;96800.47;;;6.78;nan
49311;BME280;35177;45.900;5.946;2024-01-06T10:45:28;96798.56;;;6.80;nan
49311;BME280;35177;45.900;5.946;2024-01-06T10:47:54;96797.84;;;6.78;nan
49311;BME280;35177;45.900;5.946;2024-01-06T10:50:21;96795.56;;;6.72;nan
49311;BME280;35177;45.900;5.946;2024-01-06T10:52:48;96803.84;;;6.66;nan
49311;BME280;35177;45.900;5.946;2024-01-06T10:55:15;96794.38;;;6.63;nan
49311;BME280;35177;45.900;5.946;2024-01-06T10:57:46;96801.97;;;6.68;nan
49311;BME280;35177;45.900;5.946;2024-01-06T11:00:12;96789.50;;;6.71;nan
49311;BME280;35177;45.900;5.946;2024-01-06T11:02:39;96792.00;;;6.73;nan
49311;BME280;35177;45.900;5.946;2024-01-06T11:05:04;96793.97;;;6.69;nan
49311;BME280;35177;45.900;5.946;2024-01-06T11:07:33;96803.47;;;6.72;nan
49311;BME280;35177;45.900;5.946;2024-01-06T11:10:11;96797.56;;;6.68;nan
49311;BME280;35177;45.900;5.946;2024-01-06T11:12:42;96798.25;;;6.44;nan
49311;BME280;35177;45.900;5.946;2024-01-06T11:15:07;96790.41;;;6.29;nan
49311;BME280;35177;45.900;5.946;2024-01-06T11:17:52;96799.59;;;6.22;nan
49311;BME280;35177;45.900;5.946;2024-01-06T11:20:22;96794.53;;;6.19;nan
49311;BME280;35177;45.900;5.946;2024-01-06T11:22:48;96792.94;;;6.17;nan
49311;BME280;35177;45.900;5.946;2024-01-06T11:25:18;96796.41;;;6.17;nan
49311;BME280;35177;45.900;5.946;2024-01-06T11:27:46;96796.47;;;6.30;nan
49311;BME280;35177;45.900;5.946;2024-01-06T11:30:25;96793.00;;;6.44;nan
49311;BME280;35177;45.900;5.946;2024-01-06T11:32:52;96790.88;;;6.36;nan
49311;BME280;35177;45.900;5.946;2024-01-06T11:35:19;96790.94;;;6.35;nan
49311;BME280;35177;45.900;5.946;2024-01-06T11:43:10;96780.09;;;6.12;nan
49311;BME280;35177;45.900;5.946;2024-01-06T11:45:39;96783.91;;;6.07;nan
49311;BME280;35177;45.900;5.946;2024-01-06T11:48:09;96776.88;;;6.07;nan
49311;BME280;35177;45.900;5.946;2024-01-06T11:50:38;96774.72;;;6.14;nan
49311;BME280;35177;45.900;5.946;2024-01-06T11:53:05;96768.44;;;6.16;nan
49311;BME280;35177;45.900;5.946;2024-01-06T11:55:30;96763.66;;;6.23;nan
49311;BME280;35177;45.900;5.946;2024-01-06T11:58:00;96765.63;;;6.34;nan
49311;BME280;35177;45.900;5.946;2024-01-06T12:00:28;96761.41;;;6.31;nan
49311;BME280;35177;45.900;5.946;2024-01-06T12:03:00;96759.34;;;6.36;nan
49311;BME280;35177;45.900;5.946;2024-01-06T12:05:26;96758.47;;;6.36;nan
49311;BME280;35177;45.900;5.946;2024-01-06T12:07:58;96757.63;;;6.35;nan
49311;BME280;35177;45.900;5.946;2024-01-06T12:10:25;96761.47;;;6.44;nan
49311;BME280;35177;45.900;5.946;2024-01-06T12:13:00;96757.06;;;6.44;nan
49311;BME280;35177;45.900;5.946;2024-01-06T12:15:27;96750.94;;;6.44;nan
49311;BME280;35177;45.900;5.946;2024-01-06T12:17:53;96758.88;;;6.29;nan
49311;BME280;35177;45.900;5.946;2024-01-06T12:20:19;96749.47;;;6.25;nan
49311;BME280;35177;45.900;5.946;2024-01-06T12:22:46;96751.34;;;6.23;nan
49311;BME280;35177;45.900;5.946;2024-01-06T12:25:11;96745.19;;;6.24;nan
49311;BME280;35177;45.900;5.946;2024-01-06T12:27:44;96746.09;;;6.38;nan
49311;BME280;35177;45.900;5.946;2024-01-06T12:30:18;96743.28;;;6.26;nan
49311;BME280;35177;45.900;5.946;2024-01-06T12:32:48;96742.72;;;6.21;nan
49311;BME280;35177;45.900;5.946;2024-01-06T12:35:15;96736.72;;;6.34;nan
49311;BME280;35177;45.900;5.946;2024-01-06T12:37:44;96741.28;;;6.44;nan
49311;BME280;35177;45.900;5.946;2024-01-06T12:40:13;96736.47;;;6.51;nan
49311;BME280;35177;45.900;5.946;2024-01-06T12:42:41;96733.31;;;6.46;nan
49311;BME280;35177;45.900;5.946;2024-01-06T12:45:07;96734.13;;;6.46;nan
49311;BME280;35177;45.900;5.946;2024-01-06T12:47:33;96737.06;;;6.42;nan
49311;BME280;35177;45.900;5.946;2024-01-06T12:49:59;96733.84;;;6.51;nan
49311;BME280;35177;45.900;5.946;2024-01-06T12:52:24;96734.50;;;6.54;nan
49311;BME280;35177;45.900;5.946;2024-01-06T12:54:50;96735.06;;;6.59;nan
49311;BME280;35177;45.900;5.946;2024-01-06T12:57:16;96741.91;;;6.62;nan
49311;BME280;35177;45.900;5.946;2024-01-06T12:59:41;96741.81;;;6.63;nan
49311;BME280;35177;45.900;5.946;2024-01-06T13:02:08;96743.59;;;6.63;nan
49311;BME280;35177;45.900;5.946;2024-01-06T13:04:33;96735.50;;;6.66;nan
49311;BME280;35177;45.900;5.946;2024-01-06T13:07:00;96735.09;;;6.72;nan
49311;BME280;35177;45.900;5.946;2024-01-06T13:09:25;96739.91;;;6.65;nan
49311;BME280;35177;45.900;5.946;2024-01-06T13:11:51;96730.63;;;6.60;nan
49311;BME280;35177;45.900;5.946;2024-01-06T13:14:17;96736.00;;;6.58;nan
49311;BME280;35177;45.900;5.946;2024-01-06T13:16:43;96738.63;;;6.58;nan
49311;BME280;35177;45.900;5.946;2024-01-06T13:19:09;96731.69;;;6.57;nan
49311;BME280;35177;45.900;5.946;2024-01-06T13:21:34;96730.25;;;6.66;nan
49311;BME280;35177;45.900;5.946;2024-01-06T13:24:01;96731.28;;;6.63;nan
49311;BME280;35177;45.900;5.946;2024-01-06T13:26:29;96737.84;;;6.70;nan
49311;BME280;35177;45.900;5.946;2024-01-06T13:28:55;96736.13;;;6.69;nan
49311;BME280;35177;45.900;5.946;2024-01-06T13:31:20;96737.19;;;6.67;nan
49311;BME280;35177;45.900;5.946;2024-01-06T13:33:46;96737.78;;;6.58;nan
49311;BME280;35177;45.900;5.946;2024-01-06T13:36:11;96739.88;;;6.53;nan
49311;BME280;35177;45.900;5.946;2024-01-06T13:38:36;96747.84;;;6.51;nan
49311;BME280;35177;45.900;5.946;2024-01-06T13:41:02;96746.25;;;6.49;nan
49311;BME280;35177;45.900;5.946;2024-01-06T13:43:28;96749.28;;;6.43;nan
49311;BME280;35177;45.900;5.946;2024-01-06T13:45:53;96755.09;;;6.34;nan
49311;BME280;35177;45.900;5.946;2024-01-06T13:48:20;96753.97;;;6.23;nan
49311;BME280;35177;45.900;5.946;2024-01-06T13:50:45;96753.25;;;6.21;nan
49311;BME280;35177;45.900;5.946;2024-01-06T13:53:11;96753.72;;;6.14;nan
49311;BME280;35177;45.900;5.946;2024-01-06T13:55:37;96745.94;;;6.12;nan
49311;BME280;35177;45.900;5.946;2024-01-06T13:58:03;96755.88;;;6.07;nan
49311;BME280;35177;45.900;5.946;2024-01-06T14:00:29;96753.25;;;6.07;nan
49311;BME280;35177;45.900;5.946;2024-01-06T14:02:55;96767.22;;;5.94;nan
49311;BME280;35177;45.900;5.946;2024-01-06T14:05:22;96767.13;;;5.95;nan
49311;BME280;35177;45.900;5.946;2024-01-06T14:07:47;96765.16;;;5.99;nan
49311;BME280;35177;45.900;5.946;2024-01-06T14:10:16;96773.34;;;5.94;nan
49311;BME280;35177;45.900;5.946;2024-01-06T14:12:41;96767.41;;;5.91;nan
49311;BME280;35177;45.900;5.946;2024-01-06T14:15:08;96770.72;;;5.94;nan
49311;BME280;35177;45.900;5.946;2024-01-06T14:17:34;96775.66;;;5.85;nan
49311;BME280;35177;45.900;5.946;2024-01-06T14:20:00;96775.66;;;5.85;nan
49311;BME280;35177;45.900;5.946;2024-01-06T14:22:27;96778.19;;;5.86;nan
49311;BME280;35177;45.900;5.946;2024-01-06T14:24:52;96780.97;;;5.83;nan
49311;BME280;35177;45.900;5.946;2024-01-06T14:27:18;96777.34;;;5.86;nan
49311;BME280;35177;45.900;5.946;2024-01-06T14:29:43;96781.91;;;5.82;nan
49311;BME280;35177;45.900;5.946;2024-01-06T14:32:09;96782.38;;;5.75;nan
49311;BME280;35177;45.900;5.946;2024-01-06T14:34:34;96779.47;;;5.79;nan
49311;BME280;35177;45.900;5.946;2024-01-06T14:37:00;96772.53;;;5.78;nan
49311;BME280;35177;45.900;5.946;2024-01-06T14:39:25;96780.22;;;5.81;nan
49311;BME280;35177;45.900;5.946;2024-01-06T14:41:51;96786.16;;;5.85;nan
49311;BME280;35177;45.900;5.946;2024-01-06T14:44:17;96789.66;;;5.85;nan
49311;BME280;35177;45.900;5.946;2024-01-06T14:46:46;96793.53;;;5.78;nan
49311;BME280;35177;45.900;5.946;2024-01-06T14:49:11;96790.81;;;5.80;nan
49311;BME280;35177;45.900;5.946;2024-01-06T14:51:36;96782.38;;;5.75;nan
49311;BME280;35177;45.900;5.946;2024-01-06T14:54:02;96792.56;;;5.65;nan
49311;BME280;35177;45.900;5.946;2024-01-06T14:56:27;96791.44;;;5.55;nan
49311;BME280;35177;45.900;5.946;2024-01-06T14:58:52;96802.84;;;5.54;nan
49311;BME280;35177;45.900;5.946;2024-01-06T15:01:18;96795.91;;;5.53;nan
49311;BME280;35177;45.900;5.946;2024-01-06T15:03:45;96801.53;;;5.47;nan
49311;BME280;35177;45.900;5.946;2024-01-06T15:06:10;96804.31;;;5.44;nan
49311;BME280;35177;45.900;5.946;2024-01-06T15:08:36;96806.13;;;5.43;nan
49311;BME280;35177;45.900;5.946;2024-01-06T15:11:02;96805.34;;;5.41;nan
49311;BME280;35177;45.900;5.946;2024-01-06T15:13:28;96805.59;;;5.37;nan
49311;BME280;35177;45.900;5.946;2024-01-06T15:15:53;96806.38;;;5.39;nan
49311;BME280;35177;45.900;5.946;2024-01-06T15:18:19;96812.13;;;5.30;nan
49311;BME280;35177;45.900;5.946;2024-01-06T15:20:46;96809.03;;;5.23;nan
49311;BME280;35177;45.900;5.946;2024-01-06T15:23:11;96812.88;;;5.18;nan
49311;BME280;35177;45.900;5.946;2024-01-06T15:25:37;96807.09;;;5.27;nan
49311;BME280;35177;45.900;5.946;2024-01-06T15:28:03;96811.50;;;5.26;nan
49311;BME280;35177;45.900;5.946;2024-01-06T15:30:28;96807.44;;;5.21;nan
49311;BME280;35177;45.900;5.946;2024-01-06T15:32:54;96811.16;;;5.17;nan
49311;BME280;35177;45.900;5.946;2024-01-06T15:35:19;96813.03;;;5.15;nan
49311;BME280;35177;45.900;5.946;2024-01-06T15:37:56;96809.16;;;5.06;nan
49311;BME280;35177;45.900;5.946;2024-01-06T15:40:22;96818.06;;;5.04;nan
49311;BME280;35177;45.900;5.946;2024-01-06T15:42:48;96808.47;;;5.03;nan
49311;BME280;35177;45.900;5.946;2024-01-06T15:45:15;96806.63;;;5.05;nan
49311;BME280;35177;45.900;5.946;2024-01-06T15:47:41;96818.44;;;5.12;nan
49311;BME280;35177;45.900;5.946;2024-01-06T15:50:07;96814.16;;;5.11;nan
49311;BME280;35177;45.900;5.946;2024-01-06T15:52:33;96815.06;;;5.10;nan
49311;BME280;35177;45.900;5.946;2024-01-06T15:54:59;96817.69;;;5.10;nan
49311;BME280;35177;45.900;5.946;2024-01-06T15:57:25;96822.03;;;5.11;nan
49311;BME280;35177;45.900;5.946;2024-01-06T15:59:53;96820.66;;;5.04;nan
49311;BME280;35177;45.900;5.946;2024-01-06T16:02:19;96825.31;;;4.99;nan
49311;BME280;35177;45.900;5.946;2024-01-06T16:04:45;96829.22;;;4.91;nan
49311;BME280;35177;45.900;5.946;2024-01-06T16:07:10;96830.66;;;4.97;nan
49311;BME280;35177;45.900;5.946;2024-01-06T16:09:35;96829.13;;;4.93;nan
49311;BME280;35177;45.900;5.946;2024-01-06T16:12:01;96828.09;;;4.96;nan
49311;BME280;35177;45.900;5.946;2024-01-06T16:14:29;96831.69;;;4.95;nan
49311;BME280;35177;45.900;5.946;2024-01-06T16:16:54;96822.69;;;4.99;nan
49311;BME280;35177;45.900;5.946;2024-01-06T16:19:20;96838.84;;;4.91;nan
49311;BME280;35177;45.900;5.946;2024-01-06T16:21:46;96841.72;;;4.86;nan
49311;BME280;35177;45.900;5.946;2024-01-06T16:24:11;96844.72;;;4.80;nan
49311;BME280;35177;45.900;5.946;2024-01-06T16:26:37;96843.16;;;4.76;nan
49311;BME280;35177;45.900;5.946;2024-01-06T16:29:03;96836.16;;;4.77;nan
49311;BME280;35177;45.900;5.946;2024-01-06T16:31:33;96837.09;;;4.76;nan
49311;BME280;35177;45.900;5.946;2024-01-06T16:34:00;96837.91;;;4.76;nan
49311;BME280;35177;45.900;5.946;2024-01-06T16:36:27;96832.69;;;4.76;nan
49311;BME280;35177;45.900;5.946;2024-01-06T16:38:52;96841.34;;;4.78;nan
49311;BME280;35177;45.900;5.946;2024-01-06T16:41:19;96841.34;;;4.78;nan
49311;BME280;35177;45.900;5.946;2024-01-06T16:43:51;96840.78;;;4.72;nan
49311;BME280;35177;45.900;5.946;2024-01-06T16:46:16;96840.13;;;4.68;nan
49311;BME280;35177;45.900;5.946;2024-01-06T16:48:42;96847.84;;;4.71;nan
49311;BME280;35177;45.900;5.946;2024-01-06T16:51:07;96851.38;;;4.70;nan
49311;BME280;35177;45.900;5.946;2024-01-06T16:53:34;96850.63;;;4.68;nan
49311;BME280;35177;45.900;5.946;2024-01-06T16:55:59;96854.34;;;4.64;nan
49311;BME280;35177;45.900;5.946;2024-01-06T16:58:25;96855.84;;;4.68;nan
49311;BME280;35177;45.900;5.946;2024-01-06T17:00:51;96863.13;;;4.63;nan
49311;BME280;35177;45.900;5.946;2024-01-06T17:03:18;96862.25;;;4.63;nan